Time;durP1;ratioP1;P1;durP2;ratioP2;P2;SDS_P1;SDS_P2;PMS_P1;PMS_P2;Temp;Humidity;BMP_temperature;BMP_pressure;BME280_temperature;BME280_humidity;BME280_pressure;Samples;Min_cycle;Max_cycle;Signal;HPM_P1;HPM_P2
2023/07/23 00:02:15;;;;;;;28.70;14.85;;;;;;;-144.73;100.00;54456.97;4916706;28;20036;-77
2023/07/23 00:04:41;;;;;;;37.58;17.33;;;;;;;-144.73;100.00;54440.53;4921437;29;20016;-79
2023/07/23 00:07:06;;;;;;;32.53;16.15;;;;;;;-144.73;100.00;54516.47;4923226;28;20021;-78
2023/07/23 00:09:31;;;;;;;30.95;16.15;;;;;;;-144.73;100.00;54444.66;4937949;28;20089;-78
2023/07/23 00:11:57;;;;;;;36.95;17.40;;;;;;;-144.73;100.00;54491.84;4922160;28;20110;-79
2023/07/23 00:14:22;;;;;;;34.35;18.23;;;;;;;-144.73;100.00;54459.00;4967847;28;20048;-79
2023/07/23 00:16:48;;;;;;;36.03;18.38;;;;;;;-144.73;100.00;54481.59;4928161;28;20024;-79
2023/07/23 00:19:19;;;;;;;38.35;18.20;;;;;;;-144.73;100.00;54452.84;5018967;28;20037;-79
2023/07/23 00:21:47;;;;;;;39.83;20.02;;;;;;;-144.73;100.00;54512.38;4941980;28;20018;-78
2023/07/23 00:24:13;;;;;;;42.92;21.85;;;;;;;-144.73;100.00;54444.66;4995111;28;20034;-78
2023/07/23 00:26:39;;;;;;;32.47;18.50;;;;;;;-144.73;100.00;54477.47;4947697;28;20019;-78
2023/07/23 00:29:04;;;;;;;37.58;20.65;;;;;;;-144.73;100.00;54452.84;4941332;28;20032;-78
2023/07/23 00:31:29;;;;;;;50.97;23.38;;;;;;;-144.73;100.00;54514.44;4999564;28;20038;-79
2023/07/23 00:33:55;;;;;;;43.75;23.02;;;;;;;-144.73;100.00;54493.91;5009305;28;20100;-78
2023/07/23 00:36:20;;;;;;;49.63;24.35;;;;;;;-144.73;100.00;54456.97;4972698;28;20024;-80
2023/07/23 00:38:46;;;;;;;43.72;21.88;;;;;;;-144.73;100.00;54452.84;4926388;29;20056;-78
2023/07/23 00:41:11;;;;;;;55.70;25.95;;;;;;;-144.73;100.00;54477.47;4925327;29;20039;-78
2023/07/23 00:43:36;;;;;;;49.25;24.80;;;;;;;-144.73;100.00;54481.59;4932742;28;20040;-78
2023/07/23 00:46:02;;;;;;;55.30;25.38;;;;;;;-144.73;100.00;54461.06;4934202;28;20064;-78
2023/07/23 00:48:27;;;;;;;52.30;25.95;;;;;;;-144.73;100.00;54448.75;4959440;28;20037;-79
2023/07/23 00:50:54;;;;;;;41.83;24.20;;;;;;;-144.73;100.00;54461.06;4980431;28;20035;-78
2023/07/23 00:53:19;;;;;;;47.45;23.48;;;;;;;-144.73;100.00;54489.81;5012137;28;20040;-78
2023/07/23 00:55:45;;;;;;;56.80;28.33;;;;;;;-144.73;100.00;54481.59;4969451;28;20018;-77
2023/07/23 00:58:10;;;;;;;46.72;24.23;;;;;;;-144.73;100.00;54481.59;4965055;28;20057;-77
2023/07/23 01:00:36;;;;;;;53.95;27.05;;;;;;;-144.73;100.00;54461.06;5001797;28;20109;-78
2023/07/23 01:03:02;;;;;;;60.70;25.77;;;;;;;-144.73;100.00;54498.00;4950254;28;20042;-77
2023/07/23 01:05:29;;;;;;;50.78;27.65;;;;;;;-144.73;100.00;54461.06;4944298;28;20056;-77
2023/07/23 01:07:56;;;;;;;51.65;27.13;;;;;;;-144.73;100.00;54469.28;4956268;28;20045;-77
2023/07/23 01:10:22;;;;;;;45.50;25.45;;;;;;;-144.73;100.00;54440.53;4937331;28;20018;-77
2023/07/23 01:12:49;;;;;;;58.00;26.90;;;;;;;-144.73;100.00;54491.84;4951896;28;20120;-77
2023/07/23 01:15:14;;;;;;;60.45;28.20;;;;;;;-144.73;100.00;54489.81;4969412;28;20060;-77
2023/07/23 01:17:41;;;;;;;52.53;25.88;;;;;;;-144.73;100.00;54510.31;4967304;28;20028;-77
2023/07/23 01:20:07;;;;;;;59.58;27.23;;;;;;;-144.73;100.00;54481.59;4942764;28;20041;-80
2023/07/23 01:22:34;;;;;;;46.50;24.13;;;;;;;-144.73;100.00;54500.06;4941335;28;20136;-78
2023/07/23 01:25:00;;;;;;;43.75;25.15;;;;;;;-144.73;100.00;54493.91;4974154;28;20030;-78
2023/07/23 01:27:25;;;;;;;55.92;25.60;;;;;;;-144.73;100.00;54477.47;4983497;28;20030;-78
2023/07/23 01:29:50;;;;;;;51.65;27.80;;;;;;;-144.73;100.00;54477.47;4930894;28;20077;-78
2023/07/23 01:32:16;;;;;;;50.88;26.45;;;;;;;-144.73;100.00;54452.84;4988040;28;20059;-78
2023/07/23 01:34:41;;;;;;;55.80;26.70;;;;;;;-144.73;100.00;54502.13;4957952;28;20033;-79
2023/07/23 01:37:10;;;;;;;46.65;26.08;;;;;;;-144.73;100.00;54481.59;4969793;28;20033;-78
2023/07/23 01:39:35;;;;;;;50.05;26.70;;;;;;;-144.73;100.00;54461.06;4954817;28;20033;-78
2023/07/23 01:42:01;;;;;;;65.85;31.33;;;;;;;-144.73;100.00;54508.28;4965099;28;20020;-80
2023/07/23 01:44:27;;;;;;;64.63;32.72;;;;;;;-144.73;100.00;54510.31;4967950;28;20097;-79
2023/07/23 01:46:52;;;;;;;70.97;32.42;;;;;;;-144.73;100.00;54461.06;4927503;28;20024;-79
2023/07/23 01:49:18;;;;;;;72.40;34.70;;;;;;;-144.73;100.00;54502.13;4969978;28;20040;-79
2023/07/23 01:51:43;;;;;;;74.68;34.25;;;;;;;-144.73;100.00;54469.28;4982327;28;20121;-79
2023/07/23 01:54:08;;;;;;;74.40;33.28;;;;;;;-144.73;100.00;54469.28;5001956;28;20037;-78
2023/07/23 01:56:34;;;;;;;63.40;32.15;;;;;;;-144.73;100.00;54493.91;4971594;28;20028;-79
2023/07/23 01:58:59;;;;;;;60.00;31.00;;;;;;;-144.73;100.00;54520.59;4940672;28;20036;-79
2023/07/23 02:01:25;;;;;;;79.68;34.67;;;;;;;-144.73;100.00;54506.22;4957975;28;20137;-79
2023/07/23 02:03:50;;;;;;;65.00;32.35;;;;;;;-144.73;100.00;54498.00;4978951;28;20060;-79
2023/07/23 02:06:15;;;;;;;65.97;34.40;;;;;;;-144.73;100.00;54510.31;5012226;28;20021;-79
2023/07/23 02:08:41;;;;;;;66.70;34.47;;;;;;;-144.73;100.00;54506.22;4945566;28;20028;-78
2023/07/23 02:11:06;;;;;;;60.90;29.98;;;;;;;-144.73;100.00;54493.91;5033922;28;20044;-80
2023/07/23 02:13:31;;;;;;;58.35;31.20;;;;;;;-144.73;100.00;54502.13;4997418;28;20048;-80
2023/07/23 02:15:57;;;;;;;74.85;34.53;;;;;;;-144.73;100.00;54493.91;4964909;28;20022;-79
2023/07/23 02:18:22;;;;;;;57.30;31.35;;;;;;;-144.73;100.00;54506.22;4988253;28;20037;-78
2023/07/23 02:20:48;;;;;;;65.65;32.63;;;;;;;-144.73;100.00;54502.13;4997628;28;20021;-79
2023/07/23 02:23:16;;;;;;;75.05;35.30;;;;;;;-144.73;100.00;54477.47;4930239;28;20037;-79
2023/07/23 02:25:42;;;;;;;60.65;32.10;;;;;;;-144.73;100.00;54493.91;4963678;28;20017;-79
2023/07/23 02:28:11;;;;;;;77.35;35.25;;;;;;;-144.73;100.00;54448.75;4929212;28;20043;-79
2023/07/23 02:30:37;;;;;;;65.28;32.17;;;;;;;-144.73;100.00;54514.44;4994219;28;20025;-78
2023/07/23 02:33:02;;;;;;;60.85;32.63;;;;;;;-144.73;100.00;54459.00;4964903;28;20052;-79
2023/07/23 02:35:27;;;;;;;74.78;35.45;;;;;;;-144.73;100.00;54489.81;4977600;28;20026;-79
2023/07/23 02:37:53;;;;;;;61.03;32.45;;;;;;;-144.73;100.00;54471.31;5026298;28;20123;-78
2023/07/23 02:40:19;;;;;;;66.82;33.35;;;;;;;-144.73;100.00;54516.47;4943533;28;20092;-79
2023/07/23 02:42:44;;;;;;;48.58;27.30;;;;;;;-144.73;100.00;54469.28;4937329;28;20040;-79
2023/07/23 02:45:11;;;;;;;67.78;34.05;;;;;;;-144.73;100.00;54539.06;4960123;28;20127;-78
2023/07/23 02:47:36;;;;;;;49.33;28.83;;;;;;;-144.73;100.00;54502.13;4984312;28;20045;-79
2023/07/23 02:50:02;;;;;;;61.83;32.75;;;;;;;-144.73;100.00;54477.47;4986113;28;20024;-79
2023/07/23 02:52:27;;;;;;;57.60;30.63;;;;;;;-144.73;100.00;54493.91;4945332;28;20037;-79
2023/07/23 02:54:52;;;;;;;59.35;30.08;;;;;;;-144.73;100.00;54485.69;4993134;28;20530;-79
2023/07/23 02:57:18;;;;;;;58.55;30.98;;;;;;;-144.73;100.00;54456.97;4958456;28;20495;-78
2023/07/23 02:59:43;;;;;;;60.30;31.88;;;;;;;-144.73;100.00;54489.81;4936241;28;20031;-79
2023/07/23 03:02:08;;;;;;;62.85;31.38;;;;;;;-144.73;100.00;54463.13;4946717;28;20057;-79
2023/07/23 03:04:34;;;;;;;54.80;30.30;;;;;;;-144.73;100.00;54489.81;4987687;28;20042;-79
2023/07/23 03:06:59;;;;;;;55.83;29.50;;;;;;;-144.73;100.00;54526.75;4955657;28;20040;-77
2023/07/23 03:09:24;;;;;;;64.50;30.17;;;;;;;-144.73;100.00;54500.06;4919159;28;20028;-79
2023/07/23 03:11:50;;;;;;;62.80;32.67;;;;;;;-144.73;100.00;54524.69;4938833;28;20039;-79
2023/07/23 03:14:15;;;;;;;52.88;29.77;;;;;;;-144.73;100.00;54498.00;4995607;28;20121;-79
2023/07/23 03:16:40;;;;;;;68.15;33.58;;;;;;;-144.73;100.00;54491.84;4982598;28;20049;-79
2023/07/23 03:19:06;;;;;;;63.08;30.38;;;;;;;-144.73;100.00;54489.81;4960761;28;20049;-79
2023/07/23 03:21:31;;;;;;;54.03;30.85;;;;;;;-144.73;100.00;54493.91;4972053;28;20029;-79
2023/07/23 03:23:56;;;;;;;55.72;31.55;;;;;;;-144.73;100.00;54495.97;4931953;28;20040;-79
2023/07/23 03:26:22;;;;;;;55.25;28.98;;;;;;;-144.73;100.00;54465.16;4956493;28;20028;-79
2023/07/23 03:28:47;;;;;;;59.10;30.50;;;;;;;-144.73;100.00;54510.31;4961779;28;20040;-79
2023/07/23 03:31:12;;;;;;;50.78;28.63;;;;;;;-144.73;100.00;54493.91;5032497;28;20037;-79
2023/07/23 03:33:38;;;;;;;68.82;34.70;;;;;;;-144.73;100.00;54489.81;4991919;28;20057;-80
2023/07/23 03:36:03;;;;;;;59.05;31.20;;;;;;;-144.73;100.00;54498.00;5009289;28;20098;-79
2023/07/23 03:38:29;;;;;;;53.20;27.88;;;;;;;-144.73;100.00;54481.59;4986347;28;20045;-79
2023/07/23 03:40:54;;;;;;;54.72;29.38;;;;;;;-144.73;100.00;54502.13;4940136;28;20069;-79
2023/07/23 03:43:24;;;;;;;55.50;29.65;;;;;;;-144.73;100.00;54514.44;4995024;28;20053;-79
2023/07/23 03:45:52;;;;;;;63.63;32.88;;;;;;;-144.73;100.00;54477.47;4975201;28;20032;-79
2023/07/23 03:48:18;;;;;;;60.22;29.00;;;;;;;-144.73;100.00;54508.28;4949194;28;20047;-79
2023/07/23 03:50:46;;;;;;;57.72;30.50;;;;;;;-144.73;100.00;54473.38;4929442;28;20040;-79
2023/07/23 03:53:11;;;;;;;58.53;29.02;;;;;;;-144.73;100.00;54518.53;4955726;28;20076;-79
2023/07/23 03:55:36;;;;;;;57.30;29.63;;;;;;;-144.73;100.00;54530.84;4922598;28;20076;-79
2023/07/23 03:58:02;;;;;;;59.67;27.77;;;;;;;-144.73;100.00;54483.66;4950244;28;20074;-79
2023/07/23 04:00:27;;;;;;;55.83;28.48;;;;;;;-144.73;100.00;54514.44;4954033;28;20028;-79
2023/07/23 04:02:52;;;;;;;59.83;29.70;;;;;;;-144.73;100.00;54502.13;4965391;28;21192;-79
2023/07/23 04:05:18;;;;;;;60.13;30.73;;;;;;;-144.73;100.00;54518.53;4994698;28;20028;-79
2023/07/23 04:07:43;;;;;;;59.70;28.73;;;;;;;-144.73;100.00;54514.44;4998901;28;20030;-79
2023/07/23 04:10:09;;;;;;;44.20;27.17;;;;;;;-144.73;100.00;54452.84;4995845;28;20030;-80
2023/07/23 04:12:34;;;;;;;58.38;29.48;;;;;;;-144.73;100.00;54506.22;4954370;28;20040;-79
2023/07/23 04:15:03;;;;;;;66.20;30.63;;;;;;;-144.73;100.00;54469.28;4941148;28;20039;-80
2023/07/23 04:17:28;;;;;;;45.00;26.02;;;;;;;-144.73;100.00;54483.66;4953502;28;20062;-80
2023/07/23 04:19:53;;;;;;;60.75;30.35;;;;;;;-144.73;100.00;54518.53;4965442;28;20493;-76
2023/07/23 04:22:19;;;;;;;51.15;27.55;;;;;;;-144.73;100.00;54481.59;4973593;28;20029;-78
2023/07/23 04:24:44;;;;;;;54.80;28.00;;;;;;;-144.73;100.00;54530.84;4935279;28;20024;-77
2023/07/23 04:27:10;;;;;;;53.75;29.27;;;;;;;-144.73;100.00;54493.91;4966111;28;20028;-78
2023/07/23 04:29:35;;;;;;;56.00;28.58;;;;;;;-144.73;100.00;54502.13;4913236;28;20028;-78
2023/07/23 04:32:00;;;;;;;54.83;28.05;;;;;;;-144.73;100.00;54522.63;4917760;29;20024;-79
2023/07/23 04:34:26;;;;;;;63.13;32.58;;;;;;;-144.73;100.00;54526.75;4921637;28;20032;-79
2023/07/23 04:36:52;;;;;;;59.78;30.02;;;;;;;-144.73;100.00;54512.38;4930832;28;20028;-79
2023/07/23 04:39:19;;;;;;;48.83;26.88;;;;;;;-144.73;100.00;54459.00;4960613;28;20026;-79
2023/07/23 04:41:44;;;;;;;58.83;28.90;;;;;;;-144.73;100.00;54463.13;4961942;28;20375;-79
2023/07/23 04:44:10;;;;;;;55.25;29.35;;;;;;;-144.73;100.00;54522.63;4917914;28;20115;-79
2023/07/23 04:46:35;;;;;;;55.47;27.75;;;;;;;-144.73;100.00;54489.81;4971917;28;20158;-79
2023/07/23 04:49:00;;;;;;;59.33;28.25;;;;;;;-144.73;100.00;54502.13;4934061;28;20036;-78
2023/07/23 04:51:26;;;;;;;51.67;26.35;;;;;;;-144.73;100.00;54506.22;4930428;28;20074;-77
2023/07/23 04:53:51;;;;;;;55.75;26.55;;;;;;;-144.73;100.00;54487.75;4944733;28;20064;-77
2023/07/23 04:56:16;;;;;;;57.53;27.05;;;;;;;-144.73;100.00;54473.38;4979533;28;20032;-77
2023/07/23 04:58:42;;;;;;;58.17;24.98;;;;;;;-144.73;100.00;54510.31;4973346;28;20140;-77
2023/07/23 05:01:10;;;;;;;41.95;24.02;;;;;;;-144.73;100.00;54508.28;4933610;28;20082;-77
2023/07/23 05:03:36;;;;;;;55.80;25.75;;;;;;;-144.73;100.00;54506.22;4973865;28;20034;-78
2023/07/23 05:06:03;;;;;;;54.90;25.98;;;;;;;-144.73;100.00;54502.13;4942504;28;20553;-79
2023/07/23 05:08:28;;;;;;;39.42;21.67;;;;;;;-144.73;100.00;54506.22;4931575;28;20454;-78
2023/07/23 05:11:01;;;;;;;49.80;22.65;;;;;;;-144.73;100.00;54516.47;4942772;28;20029;-77
2023/07/23 05:13:27;;;;;;;43.35;21.27;;;;;;;-144.73;100.00;54514.44;4963162;28;20024;-77
2023/07/23 05:15:52;;;;;;;42.28;22.05;;;;;;;-144.73;100.00;54518.53;4953291;28;20022;-77
2023/07/23 05:18:18;;;;;;;40.67;21.10;;;;;;;-144.73;100.00;54539.06;4927005;28;20086;-77
2023/07/23 05:20:44;;;;;;;41.72;21.73;;;;;;;-144.73;100.00;54481.59;4911554;28;20035;-78
2023/07/23 05:23:09;;;;;;;47.58;22.33;;;;;;;-144.73;100.00;54506.22;4911196;28;20036;-77
2023/07/23 05:25:34;;;;;;;46.50;22.60;;;;;;;-144.73;100.00;54518.53;4911058;29;20113;-77
2023/07/23 05:28:00;;;;;;;33.75;20.15;;;;;;;-144.73;100.00;54504.16;4910772;28;20051;-79
2023/07/23 05:30:26;;;;;;;55.55;23.20;;;;;;;-144.73;100.00;54485.69;4910887;28;20046;-77
2023/07/23 05:32:51;;;;;;;38.50;21.35;;;;;;;-144.73;100.00;54498.00;4912795;28;20043;-77
2023/07/23 05:35:17;;;;;;;48.38;24.13;;;;;;;-144.73;100.00;54498.00;4909496;29;20041;-77
2023/07/23 05:37:42;;;;;;;40.00;21.05;;;;;;;-144.73;100.00;54526.75;4926955;28;20030;-77
2023/07/23 05:40:08;;;;;;;37.83;19.45;;;;;;;-144.73;100.00;54514.44;5027224;28;20021;-78
2023/07/23 05:42:33;;;;;;;38.33;19.95;;;;;;;-144.73;100.00;54502.13;4951070;28;20396;-78
2023/07/23 05:44:58;;;;;;;35.50;19.10;;;;;;;-144.73;100.00;54526.75;4983985;28;20057;-79
2023/07/23 05:47:24;;;;;;;38.72;19.60;;;;;;;-144.73;100.00;54551.38;4970060;28;20105;-79
2023/07/23 05:49:49;;;;;;;41.03;20.63;;;;;;;-144.73;100.00;54539.06;4966378;28;20080;-78
2023/07/23 05:52:14;;;;;;;37.50;18.33;;;;;;;-144.73;100.00;54506.22;4952575;28;20349;-78
2023/07/23 05:54:40;;;;;;;40.00;18.75;;;;;;;-144.73;100.00;54506.22;4967702;28;20077;-78
2023/07/23 05:57:05;;;;;;;29.20;14.30;;;;;;;-144.73;100.00;54539.06;4950750;28;20036;-77
2023/07/23 05:59:31;;;;;;;31.52;14.65;;;;;;;-144.73;100.00;54520.59;4948774;28;20116;-78
2023/07/23 06:01:56;;;;;;;22.67;13.63;;;;;;;-144.73;100.00;54604.75;4997563;28;20026;-78
2023/07/23 06:04:22;;;;;;;33.03;14.73;;;;;;;-144.73;100.00;54522.63;4967207;28;20094;-78
2023/07/23 06:06:47;;;;;;;24.10;12.73;;;;;;;-144.73;100.00;54514.44;4922647;28;20024;-78
2023/07/23 06:09:12;;;;;;;28.10;12.07;;;;;;;-144.73;100.00;54520.59;4919758;28;20040;-78
2023/07/23 06:11:38;;;;;;;32.90;14.10;;;;;;;-144.73;100.00;54506.22;4931581;28;20031;-80
2023/07/23 06:14:03;;;;;;;33.10;15.10;;;;;;;-144.73;100.00;54604.75;4918680;28;20070;-78
2023/07/23 06:16:32;;;;;;;26.23;14.10;;;;;;;-144.73;100.00;54495.97;4922419;28;20039;-78
2023/07/23 06:18:58;;;;;;;30.95;13.88;;;;;;;-144.73;100.00;54555.47;4939218;28;20047;-78
2023/07/23 06:21:24;;;;;;;29.05;14.80;;;;;;;-144.73;100.00;54506.22;4968244;28;20116;-78
2023/07/23 06:23:49;;;;;;;25.52;12.77;;;;;;;-144.73;100.00;54461.06;4934929;28;20052;-80
2023/07/23 06:26:14;;;;;;;28.52;14.27;;;;;;;-144.73;100.00;54502.13;4971128;28;20125;-77
2023/07/23 06:28:40;;;;;;;21.35;12.75;;;;;;;-144.73;100.00;54502.13;4959220;28;20059;-77
2023/07/23 06:31:05;;;;;;;27.08;12.93;;;;;;;-144.73;100.00;54506.22;4926462;28;20031;-79
2023/07/23 06:33:49;;;;;;;29.80;13.57;;;;;;;-144.73;100.00;54522.63;4942771;28;20132;-80
2023/07/23 06:36:15;;;;;;;28.55;13.80;;;;;;;-144.73;100.00;54526.75;4980705;28;20065;-80
2023/07/23 06:38:40;;;;;;;33.75;12.93;;;;;;;-144.73;100.00;54514.44;4951128;28;20061;-79
2023/07/23 06:41:06;;;;;;;23.52;12.50;;;;;;;-144.73;100.00;54508.28;4980451;28;20061;-81
2023/07/23 06:43:32;;;;;;;25.77;13.38;;;;;;;-144.73;100.00;54500.06;4971407;28;20033;-80
2023/07/23 06:45:57;;;;;;;27.95;14.13;;;;;;;-144.73;100.00;54506.22;4977362;28;20028;-81
2023/07/23 06:48:27;;;;;;;28.50;13.50;;;;;;;-144.73;100.00;54493.91;4947899;28;20511;-82
2023/07/23 06:50:53;;;;;;;27.00;12.93;;;;;;;-144.73;100.00;54506.22;4924751;29;20028;-80
2023/07/23 06:53:18;;;;;;;29.38;13.65;;;;;;;-144.73;100.00;54508.28;4925919;28;20028;-81
2023/07/23 06:56:05;;;;;;;26.50;14.48;;;;;;;-144.73;100.00;54518.53;4924762;29;20058;-81
2023/07/23 06:58:36;;;;;;;30.90;15.73;;;;;;;-144.73;100.00;54520.59;4971891;28;20026;-81
2023/07/23 07:01:03;;;;;;;24.98;13.60;;;;;;;-144.73;100.00;54489.81;5020502;28;20020;-82
2023/07/23 07:03:28;;;;;;;30.42;15.43;;;;;;;-144.73;100.00;54489.81;4988349;28;20038;-80
2023/07/23 07:05:54;;;;;;;28.98;15.55;;;;;;;-144.73;100.00;54516.47;4995578;28;20056;-80
2023/07/23 07:08:19;;;;;;;36.60;16.13;;;;;;;-144.73;100.00;54547.28;5035988;28;20102;-79
2023/07/23 07:10:46;;;;;;;30.42;15.02;;;;;;;-144.73;100.00;54522.63;4983039;28;20033;-80
2023/07/23 07:13:12;;;;;;;34.35;16.38;;;;;;;-144.73;100.00;54489.81;4963568;28;20028;-80
2023/07/23 07:15:37;;;;;;;31.90;16.77;;;;;;;-144.73;100.00;54530.84;5029246;28;20055;-80
2023/07/23 07:18:03;;;;;;;26.95;14.20;;;;;;;-144.73;100.00;54485.69;4976687;28;20037;-79
2023/07/23 07:20:29;;;;;;;29.38;16.20;;;;;;;-144.73;100.00;54514.44;4994577;28;20045;-79
2023/07/23 07:22:54;;;;;;;32.35;18.75;;;;;;;-144.73;100.00;54526.75;4958812;28;20042;-81
2023/07/23 07:25:19;;;;;;;28.35;16.63;;;;;;;-144.73;100.00;54512.38;4954457;28;20036;-78
2023/07/23 07:27:45;;;;;;;40.47;17.55;;;;;;;-144.73;100.00;54518.53;4967325;28;20040;-79
2023/07/23 07:30:10;;;;;;;29.98;17.83;;;;;;;-144.73;100.00;54498.00;4965158;28;20059;-80
2023/07/23 07:32:35;;;;;;;33.33;17.80;;;;;;;-144.73;100.00;54481.59;4969725;28;20033;-80
2023/07/23 07:35:01;;;;;;;31.55;16.10;;;;;;;-144.73;100.00;54477.47;4979421;28;20028;-81
2023/07/23 07:37:27;;;;;;;28.77;16.60;;;;;;;-144.73;100.00;54502.13;4918763;28;20087;-81
2023/07/23 07:39:52;;;;;;;34.13;18.05;;;;;;;-144.73;100.00;54498.00;4918546;28;20036;-80
2023/07/23 07:42:18;;;;;;;33.13;17.02;;;;;;;-144.73;100.00;54498.00;4918490;28;20035;-80
2023/07/23 07:44:44;;;;;;;31.75;17.55;;;;;;;-144.73;100.00;54551.38;4920374;28;20028;-79
2023/07/23 07:47:10;;;;;;;27.13;16.48;;;;;;;-144.73;100.00;54539.06;4939611;28;20117;-82
2023/07/23 07:49:35;;;;;;;31.15;17.40;;;;;;;-144.73;100.00;54518.53;4976479;28;20040;-81
2023/07/23 07:52:01;;;;;;;29.15;16.38;;;;;;;-144.73;100.00;54530.84;4930658;28;20028;-80
2023/07/23 07:54:27;;;;;;;34.35;16.50;;;;;;;-144.73;100.00;54565.75;4961388;28;20026;-80
2023/07/23 07:56:52;;;;;;;28.65;16.33;;;;;;;-144.73;100.00;54553.44;4944666;28;20085;-78
2023/07/23 07:59:18;;;;;;;41.72;18.90;;;;;;;-144.73;100.00;54520.59;4964568;28;20040;-78
2023/07/23 08:01:43;;;;;;;34.78;17.08;;;;;;;-144.73;100.00;54547.28;4999928;28;20086;-78
2023/07/23 08:04:10;;;;;;;31.85;16.20;;;;;;;-144.73;100.00;54502.13;5030574;28;20038;-78
2023/07/23 08:06:37;;;;;;;27.85;16.45;;;;;;;-144.73;100.00;54547.28;4969606;28;20028;-80
2023/07/23 08:09:04;;;;;;;28.88;16.13;;;;;;;-144.73;100.00;54502.13;4932303;28;20057;-79
2023/07/23 08:11:31;;;;;;;26.42;14.55;;;;;;;-144.73;100.00;54498.00;4965908;28;20029;-80
2023/07/23 08:13:57;;;;;;;26.63;15.63;;;;;;;-144.73;100.00;54465.16;4942640;28;20088;-78
2023/07/23 08:16:23;;;;;;;26.40;15.55;;;;;;;-144.73;100.00;54510.31;4942469;28;20032;-78
2023/07/23 08:18:48;;;;;;;33.75;16.83;;;;;;;-144.73;100.00;54506.22;5015295;28;20070;-79
2023/07/23 08:21:14;;;;;;;35.33;15.98;;;;;;;-144.73;100.00;54561.63;4917445;28;20118;-79
2023/07/23 08:23:40;;;;;;;35.22;17.38;;;;;;;-144.73;100.00;54487.75;4914893;28;20077;-79
2023/07/23 08:26:06;;;;;;;29.77;16.23;;;;;;;-144.73;100.00;54539.06;4911245;28;20039;-80
2023/07/23 08:28:36;;;;;;;30.65;16.77;;;;;;;-144.73;100.00;54522.63;4928899;28;20042;-80
2023/07/23 08:31:02;;;;;;;30.55;15.43;;;;;;;-144.73;100.00;54539.06;4930916;28;20038;-79
2023/07/23 08:33:29;;;;;;;26.35;16.10;;;;;;;-144.73;100.00;54539.06;4917665;28;20091;-78
2023/07/23 08:35:56;;;;;;;30.45;16.77;;;;;;;-144.73;100.00;54483.66;4913933;28;20032;-79
2023/07/23 08:38:23;;;;;;;25.98;14.80;;;;;;;-144.73;100.00;54549.31;4921856;28;20040;-78
2023/07/23 08:41:03;;;;;;;27.55;14.32;;;;;;;-144.73;100.00;54526.75;4969200;28;20031;-78
2023/07/23 08:44:00;;;;;;;28.15;15.73;;;;;;;-144.73;100.00;54518.53;5002607;28;20052;-79
2023/07/23 08:46:27;;;;;;;28.13;15.65;;;;;;;-144.73;100.00;54510.31;4987295;28;20045;-78
2023/07/23 08:48:56;;;;;;;27.63;14.18;;;;;;;-144.73;100.00;54485.69;4928773;28;20051;-78
2023/07/23 08:51:24;;;;;;;25.92;14.60;;;;;;;-144.73;100.00;54498.00;4969386;28;20028;-79
2023/07/23 08:53:50;;;;;;;24.08;14.75;;;;;;;-144.73;100.00;54514.44;4995337;28;20026;-78
2023/07/23 08:56:17;;;;;;;23.50;13.60;;;;;;;-144.73;100.00;54604.75;4946899;28;20022;-80
2023/07/23 08:58:43;;;;;;;24.98;14.52;;;;;;;-144.73;100.00;54522.63;4925232;28;20036;-78
2023/07/23 09:01:13;;;;;;;27.30;13.55;;;;;;;-144.73;100.00;54545.22;4949585;28;20064;-78
2023/07/23 09:03:38;;;;;;;24.38;12.70;;;;;;;-144.73;100.00;54518.53;4959102;28;20041;-78
2023/07/23 09:06:05;;;;;;;24.48;13.93;;;;;;;-144.73;100.00;54489.81;4932389;28;20032;-78
2023/07/23 09:08:31;;;;;;;31.02;13.60;;;;;;;-144.73;100.00;54510.31;5026130;28;20033;-78
2023/07/23 09:10:56;;;;;;;18.90;12.60;;;;;;;-144.73;100.00;54551.38;4912619;28;20028;-78
2023/07/23 09:13:22;;;;;;;32.17;14.57;;;;;;;-144.73;100.00;54567.81;5010250;28;20031;-78
2023/07/23 09:15:54;;;;;;;25.35;14.48;;;;;;;-144.73;100.00;54543.16;4957242;28;20029;-77
2023/07/23 09:18:20;;;;;;;19.52;12.80;;;;;;;-144.73;100.00;54518.53;4951586;28;20057;-77
2023/07/23 09:20:49;;;;;;;23.63;13.50;;;;;;;-144.73;100.00;54512.38;4949649;28;20426;-77
2023/07/23 09:23:15;;;;;;;28.90;14.38;;;;;;;-144.73;100.00;54489.81;5008835;28;20150;-77
2023/07/23 09:25:43;;;;;;;25.23;14.85;;;;;;;-144.73;100.00;54543.16;4921855;28;20028;-76
2023/07/23 09:28:21;;;;;;;34.88;16.30;;;;;;;-144.73;100.00;54543.16;4925886;28;20040;-77
2023/07/23 09:30:47;;;;;;;25.83;14.38;;;;;;;-144.73;100.00;54530.84;4925769;28;20043;-77
2023/07/23 09:33:12;;;;;;;26.58;14.70;;;;;;;-144.73;100.00;54539.06;4928239;28;20114;-78
2023/07/23 09:35:39;;;;;;;28.73;14.32;;;;;;;-144.73;100.00;54502.13;4921381;28;20026;-79
2023/07/23 09:38:05;;;;;;;27.58;14.80;;;;;;;-144.73;100.00;54549.31;4931978;28;20037;-78
2023/07/23 09:40:38;;;;;;;24.60;13.88;;;;;;;-144.73;100.00;54522.63;4925655;28;20020;-79
2023/07/23 09:43:04;;;;;;;25.63;14.98;;;;;;;-144.73;100.00;54551.38;4931222;28;20073;-78
2023/07/23 09:45:31;;;;;;;28.23;14.65;;;;;;;-144.73;100.00;54506.22;4927741;28;20016;-78
2023/07/23 09:47:58;;;;;;;33.15;15.73;;;;;;;-144.73;100.00;54506.22;4925200;28;20526;-77
2023/07/23 09:50:25;;;;;;;32.05;15.73;;;;;;;-144.73;100.00;54526.75;4924366;28;20020;-78
2023/07/23 09:52:50;;;;;;;28.50;16.80;;;;;;;-144.73;100.00;54506.22;4923294;28;20491;-78
2023/07/23 09:55:17;;;;;;;28.00;15.75;;;;;;;-144.73;100.00;54604.75;4932613;28;20093;-78
2023/07/23 09:57:45;;;;;;;32.25;16.83;;;;;;;-144.73;100.00;54526.75;4932796;28;20040;-79
2023/07/23 10:00:12;;;;;;;29.85;16.92;;;;;;;-144.73;100.00;54561.63;5014590;28;20039;-78
2023/07/23 10:02:39;;;;;;;32.70;15.35;;;;;;;-144.73;100.00;54541.13;4924987;28;20043;-79
2023/07/23 10:05:06;;;;;;;24.42;16.20;;;;;;;-144.73;100.00;54576.00;4925630;28;20093;-79
2023/07/23 10:07:32;;;;;;;29.55;16.70;;;;;;;-144.73;100.00;54539.06;4925542;28;20039;-78
2023/07/23 10:09:59;;;;;;;30.05;16.42;;;;;;;-144.73;100.00;54522.63;4943263;28;20029;-78
2023/07/23 10:12:25;;;;;;;32.22;16.77;;;;;;;-144.73;100.00;54512.38;4959164;28;20054;-78
2023/07/23 10:14:50;;;;;;;25.27;14.90;;;;;;;-144.73;100.00;54539.06;4926497;28;20024;-77
2023/07/23 10:17:17;;;;;;;35.25;18.02;;;;;;;-144.73;100.00;54477.47;4934926;28;20067;-77
2023/07/23 10:19:43;;;;;;;30.20;17.55;;;;;;;-144.73;100.00;54508.28;4942862;28;20024;-77
2023/07/23 10:22:09;;;;;;;26.65;15.98;;;;;;;-144.73;100.00;54522.63;4926417;28;20028;-79
2023/07/23 10:24:39;;;;;;;23.23;15.68;;;;;;;-144.73;100.00;54547.28;4948256;28;20085;-79
2023/07/23 10:27:14;;;;;;;27.65;16.08;;;;;;;-144.73;100.00;54604.75;4933224;28;20058;-79
2023/07/23 10:29:41;;;;;;;34.47;16.80;;;;;;;-144.73;100.00;54510.31;4940554;28;20114;-79
2023/07/23 10:32:26;;;;;;;31.60;15.43;;;;;;;-144.73;100.00;54522.63;4937354;28;20075;-80
2023/07/23 10:34:54;;;;;;;26.80;15.07;;;;;;;-144.73;100.00;54510.31;4939529;28;20033;-80
2023/07/23 10:37:21;;;;;;;28.50;16.02;;;;;;;-144.73;100.00;54518.53;4938528;28;20030;-81
2023/07/23 10:39:49;;;;;;;29.23;15.23;;;;;;;-144.73;100.00;54512.38;4936712;28;20043;-79
2023/07/23 10:42:41;;;;;;;24.13;14.43;;;;;;;-144.73;100.00;54526.75;4932229;28;20028;-79
2023/07/23 10:45:24;;;;;;;25.67;13.80;;;;;;;-144.73;100.00;54514.44;4932348;28;20054;-79
2023/07/23 10:47:55;;;;;;;24.35;13.23;;;;;;;-144.73;100.00;54555.47;4926399;28;20032;-78
2023/07/23 10:50:21;;;;;;;26.85;13.20;;;;;;;-144.73;100.00;54493.91;4920598;28;20036;-77
2023/07/23 10:52:52;;;;;;;23.42;14.45;;;;;;;-144.73;100.00;54506.22;4923782;28;20123;-76